sensor_id;sensor_type;location;lat;lon;timestamp;pressure;altitude;pressure_sealevel;temperature
19102;BMP280;9683;49.028;12.064;2023-06-22T00:01:09;97476.75;;;22.94
19102;BMP280;9683;49.028;12.064;2023-06-22T00:03:35;97465.16;;;22.88
19102;BMP280;9683;49.028;12.064;2023-06-22T00:06:02;97453.88;;;22.81
19102;BMP280;9683;49.028;12.064;2023-06-22T00:08:28;97429.44;;;22.62
19102;BMP280;9683;49.028;12.064;2023-06-22T00:10:55;97446.97;;;22.70
19102;BMP280;9683;49.028;12.064;2023-06-22T00:13:21;97432.97;;;22.63
19102;BMP280;9683;49.028;12.064;2023-06-22T00:15:49;97438.31;;;22.68
19102;BMP280;9683;49.028;12.064;2023-06-22T00:18:16;97436.41;;;22.68
19102;BMP280;9683;49.028;12.064;2023-06-22T00:20:42;97438.03;;;22.69
19102;BMP280;9683;49.028;12.064;2023-06-22T00:23:11;97439.66;;;22.70
19102;BMP280;9683;49.028;12.064;2023-06-22T00:25:39;97445.06;;;22.70
19102;BMP280;9683;49.028;12.064;2023-06-22T00:28:06;97428.84;;;22.65
19102;BMP280;9683;49.028;12.064;2023-06-22T00:30:34;97410.66;;;22.66
19102;BMP280;9683;49.028;12.064;2023-06-22T00:33:01;97411.97;;;22.68
19102;BMP280;9683;49.028;12.064;2023-06-22T00:35:28;97400.88;;;22.65
19102;BMP280;9683;49.028;12.064;2023-06-22T00:37:55;97395.25;;;22.61
19102;BMP280;9683;49.028;12.064;2023-06-22T00:40:26;97393.06;;;22.63
19102;BMP280;9683;49.028;12.064;2023-06-22T00:42:53;97365.44;;;22.43
19102;BMP280;9683;49.028;12.064;2023-06-22T00:45:20;97387.63;;;22.63
19102;BMP280;9683;49.028;12.064;2023-06-22T00:47:48;97385.13;;;22.67
19102;BMP280;9683;49.028;12.064;2023-06-22T00:50:18;97377.72;;;22.72
19102;BMP280;9683;49.028;12.064;2023-06-22T00:52:47;97393.41;;;22.75
19102;BMP280;9683;49.028;12.064;2023-06-22T00:55:14;97395.53;;;22.78
19102;BMP280;9683;49.028;12.064;2023-06-22T00:57:43;97385.34;;;22.70
19102;BMP280;9683;49.028;12.064;2023-06-22T01:00:11;97394.34;;;22.66
19102;BMP280;9683;49.028;12.064;2023-06-22T01:02:44;97386.69;;;22.54
19102;BMP280;9683;49.028;12.064;2023-06-22T01:05:12;97380.31;;;22.45
19102;BMP280;9683;49.028;12.064;2023-06-22T01:07:47;97384.94;;;22.45
19102;BMP280;9683;49.028;12.064;2023-06-22T01:10:23;97383.31;;;22.44
19102;BMP280;9683;49.028;12.064;2023-06-22T01:12:53;97387.72;;;22.39
19102;BMP280;9683;49.028;12.064;2023-06-22T01:15:23;97389.34;;;22.40
19102;BMP280;9683;49.028;12.064;2023-06-22T01:17:52;97391.25;;;22.40
19102;BMP280;9683;49.028;12.064;2023-06-22T01:20:20;97401.00;;;22.41
19102;BMP280;9683;49.028;12.064;2023-06-22T01:23:01;97391.78;;;22.42
19102;BMP280;9683;49.028;12.064;2023-06-22T01:25:35;97390.16;;;22.41
19102;BMP280;9683;49.028;12.064;2023-06-22T01:28:07;97377.19;;;22.38
19102;BMP280;9683;49.028;12.064;2023-06-22T01:30:42;97390.22;;;22.36
19102;BMP280;9683;49.028;12.064;2023-06-22T01:33:10;97376.59;;;22.22
19102;BMP280;9683;49.028;12.064;2023-06-22T01:35:38;97394.19;;;22.25
19102;BMP280;9683;49.028;12.064;2023-06-22T01:38:06;97387.22;;;22.19
19102;BMP280;9683;49.028;12.064;2023-06-22T01:40:33;97395.00;;;22.25
19102;BMP280;9683;49.028;12.064;2023-06-22T01:43:01;97400.44;;;22.25
19102;BMP280;9683;49.028;12.064;2023-06-22T01:45:28;97397.25;;;22.18
19102;BMP280;9683;49.028;12.064;2023-06-22T01:47:57;97410.75;;;22.23
19102;BMP280;9683;49.028;12.064;2023-06-22T01:50:24;97411.34;;;22.20
19102;BMP280;9683;49.028;12.064;2023-06-22T01:52:50;97391.56;;;22.01
19102;BMP280;9683;49.028;12.064;2023-06-22T01:55:17;97418.25;;;22.13
19102;BMP280;9683;49.028;12.064;2023-06-22T01:57:43;97414.94;;;22.16
19102;BMP280;9683;49.028;12.064;2023-06-22T02:00:12;97403.66;;;22.09
19102;BMP280;9683;49.028;12.064;2023-06-22T02:02:44;97397.56;;;21.98
19102;BMP280;9683;49.028;12.064;2023-06-22T02:05:17;97421.03;;;22.08
19102;BMP280;9683;49.028;12.064;2023-06-22T02:07:46;97425.03;;;22.10
19102;BMP280;9683;49.028;12.064;2023-06-22T02:10:15;97397.88;;;21.97
19102;BMP280;9683;49.028;12.064;2023-06-22T02:12:43;97403.94;;;22.07
19102;BMP280;9683;49.028;12.064;2023-06-22T02:15:11;97416.63;;;22.12
19102;BMP280;9683;49.028;12.064;2023-06-22T02:17:39;97418.09;;;22.04
19102;BMP280;9683;49.028;12.064;2023-06-22T02:20:14;97417.06;;;22.00
19102;BMP280;9683;49.028;12.064;2023-06-22T02:22:41;97413.28;;;22.01
19102;BMP280;9683;49.028;12.064;2023-06-22T02:25:08;97415.72;;;21.98
19102;BMP280;9683;49.028;12.064;2023-06-22T02:27:34;97416.03;;;21.96
19102;BMP280;9683;49.028;12.064;2023-06-22T02:30:01;97415.22;;;21.96
19102;BMP280;9683;49.028;12.064;2023-06-22T02:32:28;97413.59;;;21.94
19102;BMP280;9683;49.028;12.064;2023-06-22T02:34:55;97392.25;;;21.88
19102;BMP280;9683;49.028;12.064;2023-06-22T02:37:23;97398.16;;;21.95
19102;BMP280;9683;49.028;12.064;2023-06-22T02:39:50;97401.97;;;21.94
19102;BMP280;9683;49.028;12.064;2023-06-22T02:42:17;97393.31;;;21.92
19102;BMP280;9683;49.028;12.064;2023-06-22T02:44:45;97393.00;;;21.93
19102;BMP280;9683;49.028;12.064;2023-06-22T02:47:12;97390.31;;;21.93
19102;BMP280;9683;49.028;12.064;2023-06-22T02:49:39;97380.56;;;21.92
19102;BMP280;9683;49.028;12.064;2023-06-22T02:52:06;97388.16;;;21.90
19102;BMP280;9683;49.028;12.064;2023-06-22T02:54:33;97380.59;;;21.87
19102;BMP280;9683;49.028;12.064;2023-06-22T02:57:00;97387.66;;;21.88
19102;BMP280;9683;49.028;12.064;2023-06-22T02:59:27;97388.16;;;21.90
19102;BMP280;9683;49.028;12.064;2023-06-22T03:01:54;97394.66;;;21.89
19102;BMP280;9683;49.028;12.064;2023-06-22T03:04:21;97391.16;;;21.89
19102;BMP280;9683;49.028;12.064;2023-06-22T03:06:47;97366.16;;;21.73
19102;BMP280;9683;49.028;12.064;2023-06-22T03:09:16;97384.94;;;21.88
19102;BMP280;9683;49.028;12.064;2023-06-22T03:11:44;97389.84;;;21.86
19102;BMP280;9683;49.028;12.064;2023-06-22T03:14:11;97374.22;;;21.78
19102;BMP280;9683;49.028;12.064;2023-06-22T03:16:37;97382.06;;;21.80
19102;BMP280;9683;49.028;12.064;2023-06-22T03:19:05;97394.00;;;21.79
19102;BMP280;9683;49.028;12.064;2023-06-22T03:21:32;97386.75;;;21.74
19102;BMP280;9683;49.028;12.064;2023-06-22T03:23:58;97382.41;;;21.73
19102;BMP280;9683;49.028;12.064;2023-06-22T03:26:25;97376.50;;;21.71
19102;BMP280;9683;49.028;12.064;2023-06-22T03:28:53;97375.69;;;21.71
19102;BMP280;9683;49.028;12.064;2023-06-22T03:31:20;97378.72;;;21.64
19102;BMP280;9683;49.028;12.064;2023-06-22T03:33:47;97325.56;;;21.26
19102;BMP280;9683;49.028;12.064;2023-06-22T03:36:13;97388.75;;;21.64
19102;BMP280;9683;49.028;12.064;2023-06-22T03:38:41;97384.53;;;21.58
19102;BMP280;9683;49.028;12.064;2023-06-22T03:41:08;97382.91;;;21.57
19102;BMP280;9683;49.028;12.064;2023-06-22T03:43:34;97393.25;;;21.55
19102;BMP280;9683;49.028;12.064;2023-06-22T03:46:02;97394.03;;;21.55
19102;BMP280;9683;49.028;12.064;2023-06-22T03:48:29;97383.91;;;21.42
19102;BMP280;9683;49.028;12.064;2023-06-22T03:50:55;97389.03;;;21.43
19102;BMP280;9683;49.028;12.064;2023-06-22T03:53:22;97390.19;;;21.37
19102;BMP280;9683;49.028;12.064;2023-06-22T03:55:49;97395.31;;;21.39
19102;BMP280;9683;49.028;12.064;2023-06-22T03:58:16;97400.16;;;21.42
19102;BMP280;9683;49.028;12.064;2023-06-22T04:00:44;97389.06;;;21.38
19102;BMP280;9683;49.028;12.064;2023-06-22T04:03:12;97402.28;;;21.45
19102;BMP280;9683;49.028;12.064;2023-06-22T04:05:39;97409.31;;;21.46
19102;BMP280;9683;49.028;12.064;2023-06-22T04:08:06;97409.03;;;21.47
19102;BMP280;9683;49.028;12.064;2023-06-22T04:10:33;97402.78;;;21.47
19102;BMP280;9683;49.028;12.064;2023-06-22T04:12:59;97413.56;;;21.52
19102;BMP280;9683;49.028;12.064;2023-06-22T04:15:26;97334.13;;;21.09
19102;BMP280;9683;49.028;12.064;2023-06-22T04:17:54;97411.84;;;21.61
19102;BMP280;9683;49.028;12.064;2023-06-22T04:20:23;97410.75;;;21.62
19102;BMP280;9683;49.028;12.064;2023-06-22T04:22:51;97406.19;;;21.58
19102;BMP280;9683;49.028;12.064;2023-06-22T04:25:18;97422.41;;;21.63
19102;BMP280;9683;49.028;12.064;2023-06-22T04:27:45;97416.81;;;21.54
19102;BMP280;9683;49.028;12.064;2023-06-22T04:30:12;97424.25;;;21.43
19102;BMP280;9683;49.028;12.064;2023-06-22T04:32:42;97428.84;;;21.43
19102;BMP280;9683;49.028;12.064;2023-06-22T04:35:08;97427.25;;;21.42
19102;BMP280;9683;49.028;12.064;2023-06-22T04:37:36;97426.38;;;21.46
19102;BMP280;9683;49.028;12.064;2023-06-22T04:40:05;97422.00;;;21.51
19102;BMP280;9683;49.028;12.064;2023-06-22T04:42:34;97406.84;;;21.49
19102;BMP280;9683;49.028;12.064;2023-06-22T04:45:01;97404.09;;;21.55
19102;BMP280;9683;49.028;12.064;2023-06-22T04:47:27;97399.75;;;21.54
19102;BMP280;9683;49.028;12.064;2023-06-22T04:49:54;97392.66;;;21.58
19102;BMP280;9683;49.028;12.064;2023-06-22T04:52:20;97392.13;;;21.56
19102;BMP280;9683;49.028;12.064;2023-06-22T04:54:49;97394.28;;;21.59
19102;BMP280;9683;49.028;12.064;2023-06-22T04:57:20;97401.47;;;21.44
19102;BMP280;9683;49.028;12.064;2023-06-22T04:59:58;97391.50;;;21.40
19102;BMP280;9683;49.028;12.064;2023-06-22T05:02:41;97390.09;;;21.42
19102;BMP280;9683;49.028;12.064;2023-06-22T05:05:08;97393.56;;;21.48
19102;BMP280;9683;49.028;12.064;2023-06-22T05:07:39;97389.19;;;21.52
19102;BMP280;9683;49.028;12.064;2023-06-22T05:10:10;97386.41;;;21.57
19102;BMP280;9683;49.028;12.064;2023-06-22T05:12:38;97391.94;;;21.71
19102;BMP280;9683;49.028;12.064;2023-06-22T05:15:07;97389.47;;;21.74
19102;BMP280;9683;49.028;12.064;2023-06-22T05:17:34;97375.84;;;21.79
19102;BMP280;9683;49.028;12.064;2023-06-22T05:20:01;97378.25;;;21.81
19102;BMP280;9683;49.028;12.064;2023-06-22T05:22:27;97389.56;;;21.88
19102;BMP280;9683;49.028;12.064;2023-06-22T05:24:54;97381.34;;;21.93
19102;BMP280;9683;49.028;12.064;2023-06-22T05:27:22;97374.19;;;22.02
19102;BMP280;9683;49.028;12.064;2023-06-22T05:29:48;97368.47;;;22.04
19102;BMP280;9683;49.028;12.064;2023-06-22T05:32:15;97366.25;;;22.06
19102;BMP280;9683;49.028;12.064;2023-06-22T05:34:42;97369.38;;;22.18
19102;BMP280;9683;49.028;12.064;2023-06-22T05:37:08;97373.88;;;22.22
19102;BMP280;9683;49.028;12.064;2023-06-22T05:39:36;97378.22;;;22.23
19102;BMP280;9683;49.028;12.064;2023-06-22T05:42:04;97365.84;;;22.17
19102;BMP280;9683;49.028;12.064;2023-06-22T05:44:32;97374.41;;;22.24
19102;BMP280;9683;49.028;12.064;2023-06-22T05:46:59;97373.09;;;22.22
19102;BMP280;9683;49.028;12.064;2023-06-22T05:49:26;97378.59;;;22.17
19102;BMP280;9683;49.028;12.064;2023-06-22T05:51:55;97376.97;;;22.16
19102;BMP280;9683;49.028;12.064;2023-06-22T05:54:21;97371.63;;;22.11
19102;BMP280;9683;49.028;12.064;2023-06-22T05:56:48;97378.88;;;22.15
19102;BMP280;9683;49.028;12.064;2023-06-22T05:59:14;97361.50;;;22.16
19102;BMP280;9683;49.028;12.064;2023-06-22T06:01:42;97353.31;;;22.21
19102;BMP280;9683;49.028;12.064;2023-06-22T06:04:09;97348.28;;;22.28
19102;BMP280;9683;49.028;12.064;2023-06-22T06:06:35;97352.22;;;22.36
19102;BMP280;9683;49.028;12.064;2023-06-22T06:09:02;97343.41;;;22.44
19102;BMP280;9683;49.028;12.064;2023-06-22T06:11:29;97348.78;;;22.49
19102;BMP280;9683;49.028;12.064;2023-06-22T06:13:56;97336.50;;;22.52
19102;BMP280;9683;49.028;12.064;2023-06-22T06:16:22;97343.47;;;22.58
19102;BMP280;9683;49.028;12.064;2023-06-22T06:18:50;97333.91;;;22.60
19102;BMP280;9683;49.028;12.064;2023-06-22T06:21:18;97346.31;;;22.66
19102;BMP280;9683;49.028;12.064;2023-06-22T06:23:45;97348.44;;;22.69
19102;BMP280;9683;49.028;12.064;2023-06-22T06:26:12;97344.84;;;22.74
19102;BMP280;9683;49.028;12.064;2023-06-22T06:28:41;97300.84;;;22.58
19102;BMP280;9683;49.028;12.064;2023-06-22T06:31:08;97336.19;;;22.85
19102;BMP280;9683;49.028;12.064;2023-06-22T06:33:35;97333.09;;;22.92
19102;BMP280;9683;49.028;12.064;2023-06-22T06:36:03;97319.00;;;22.90
19102;BMP280;9683;49.028;12.064;2023-06-22T06:38:29;97332.22;;;22.97
19102;BMP280;9683;49.028;12.064;2023-06-22T06:40:56;97322.16;;;22.97
19102;BMP280;9683;49.028;12.064;2023-06-22T06:43:22;97320.13;;;23.03
19102;BMP280;9683;49.028;12.064;2023-06-22T06:45:49;97311.16;;;23.02
19102;BMP280;9683;49.028;12.064;2023-06-22T06:48:16;97299.00;;;23.00
19102;BMP280;9683;49.028;12.064;2023-06-22T06:50:43;97311.97;;;23.16
19102;BMP280;9683;49.028;12.064;2023-06-22T06:53:11;97311.78;;;23.26
19102;BMP280;9683;49.028;12.064;2023-06-22T06:55:38;97308.97;;;23.32
19102;BMP280;9683;49.028;12.064;2023-06-22T06:58:04;97314.00;;;23.38
19102;BMP280;9683;49.028;12.064;2023-06-22T07:00:35;97316.91;;;23.42
19102;BMP280;9683;49.028;12.064;2023-06-22T07:03:02;97307.66;;;23.43
19102;BMP280;9683;49.028;12.064;2023-06-22T07:05:31;97307.25;;;23.49
19102;BMP280;9683;49.028;12.064;2023-06-22T07:07:57;97255.94;;;23.20
19102;BMP280;9683;49.028;12.064;2023-06-22T07:10:26;97292.94;;;23.57
19102;BMP280;9683;49.028;12.064;2023-06-22T07:12:53;97302.78;;;23.67
19102;BMP280;9683;49.028;12.064;2023-06-22T07:15:19;97299.97;;;23.72
19102;BMP280;9683;49.028;12.064;2023-06-22T07:17:46;97284.13;;;23.74
19102;BMP280;9683;49.028;12.064;2023-06-22T07:20:12;97284.19;;;23.83
19102;BMP280;9683;49.028;12.064;2023-06-22T07:22:39;97290.34;;;23.88
19102;BMP280;9683;49.028;12.064;2023-06-22T07:25:07;97192.44;;;23.30
19102;BMP280;9683;49.028;12.064;2023-06-22T07:27:37;97295.38;;;23.95
19102;BMP280;9683;49.028;12.064;2023-06-22T07:30:06;97292.84;;;23.98
19102;BMP280;9683;49.028;12.064;2023-06-22T07:32:32;97291.59;;;24.04
19102;BMP280;9683;49.028;12.064;2023-06-22T07:34:59;97292.56;;;24.08
19102;BMP280;9683;49.028;12.064;2023-06-22T07:37:27;97285.41;;;24.12
19102;BMP280;9683;49.028;12.064;2023-06-22T07:39:54;97289.31;;;24.20
19102;BMP280;9683;49.028;12.064;2023-06-22T07:42:24;97280.06;;;24.21
19102;BMP280;9683;49.028;12.064;2023-06-22T07:44:52;97279.00;;;24.31
19102;BMP280;9683;49.028;12.064;2023-06-22T07:47:18;97278.19;;;24.30
19102;BMP280;9683;49.028;12.064;2023-06-22T07:49:45;97282.88;;;24.38
19102;BMP280;9683;49.028;12.064;2023-06-22T07:52:12;97283.56;;;24.44
19102;BMP280;9683;49.028;12.064;2023-06-22T07:54:39;97276.38;;;24.48
19102;BMP280;9683;49.028;12.064;2023-06-22T07:57:05;97273.84;;;24.51
19102;BMP280;9683;49.028;12.064;2023-06-22T07:59:32;97270.81;;;24.53
19102;BMP280;9683;49.028;12.064;2023-06-22T08:02:01;97216.53;;;24.26
19102;BMP280;9683;49.028;12.064;2023-06-22T08:04:28;97272.78;;;24.61
19102;BMP280;9683;49.028;12.064;2023-06-22T08:06:56;97233.13;;;24.46
19102;BMP280;9683;49.028;12.064;2023-06-22T08:09:22;97268.94;;;24.71
19102;BMP280;9683;49.028;12.064;2023-06-22T08:11:49;97275.88;;;24.77
19102;BMP280;9683;49.028;12.064;2023-06-22T08:14:15;97269.97;;;24.83
19102;BMP280;9683;49.028;12.064;2023-06-22T08:16:42;97280.47;;;24.90
19102;BMP280;9683;49.028;12.064;2023-06-22T08:19:10;97276.47;;;24.96
19102;BMP280;9683;49.028;12.064;2023-06-22T08:21:36;97269.28;;;25.00
19102;BMP280;9683;49.028;12.064;2023-06-22T08:24:04;97270.75;;;25.06
19102;BMP280;9683;49.028;12.064;2023-06-22T08:26:30;97268.19;;;25.09
19102;BMP280;9683;49.028;12.064;2023-06-22T08:29:01;97263.41;;;25.15
19102;BMP280;9683;49.028;12.064;2023-06-22T08:31:27;97239.31;;;25.08
19102;BMP280;9683;49.028;12.064;2023-06-22T08:33:54;97266.16;;;25.32
19102;BMP280;9683;49.028;12.064;2023-06-22T08:36:22;97256.88;;;25.42
19102;BMP280;9683;49.028;12.064;2023-06-22T08:38:49;97249.03;;;25.49
19102;BMP280;9683;49.028;12.064;2023-06-22T08:41:17;97237.81;;;25.50
19102;BMP280;9683;49.028;12.064;2023-06-22T08:43:43;97247.47;;;25.65
19102;BMP280;9683;49.028;12.064;2023-06-22T08:46:10;97251.00;;;25.74
19102;BMP280;9683;49.028;12.064;2023-06-22T08:48:37;97241.84;;;25.79
19102;BMP280;9683;49.028;12.064;2023-06-22T08:51:04;97259.19;;;25.83
19102;BMP280;9683;49.028;12.064;2023-06-22T08:53:32;97262.38;;;25.93
19102;BMP280;9683;49.028;12.064;2023-06-22T08:56:00;97251.97;;;25.95
19102;BMP280;9683;49.028;12.064;2023-06-22T08:58:26;97254.53;;;26.00
19102;BMP280;9683;49.028;12.064;2023-06-22T09:00:53;97244.22;;;26.06
19102;BMP280;9683;49.028;12.064;2023-06-22T09:03:19;97249.81;;;26.18
19102;BMP280;9683;49.028;12.064;2023-06-22T09:05:46;97251.78;;;26.26
19102;BMP280;9683;49.028;12.064;2023-06-22T09:08:13;97248.41;;;26.29
19102;BMP280;9683;49.028;12.064;2023-06-22T09:10:41;97253.06;;;26.37
19102;BMP280;9683;49.028;12.064;2023-06-22T09:13:08;97235.72;;;26.33
19102;BMP280;9683;49.028;12.064;2023-06-22T09:15:34;97256.72;;;26.50
19102;BMP280;9683;49.028;12.064;2023-06-22T09:18:01;97243.19;;;26.54
19102;BMP280;9683;49.028;12.064;2023-06-22T09:20:28;97249.91;;;26.65
19102;BMP280;9683;49.028;12.064;2023-06-22T09:22:54;97256.66;;;26.67
19102;BMP280;9683;49.028;12.064;2023-06-22T09:25:21;97245.88;;;26.71
19102;BMP280;9683;49.028;12.064;2023-06-22T09:27:49;97243.28;;;26.74
19102;BMP280;9683;49.028;12.064;2023-06-22T09:30:16;97241.03;;;26.76
19102;BMP280;9683;49.028;12.064;2023-06-22T09:32:42;97231.69;;;26.77
19102;BMP280;9683;49.028;12.064;2023-06-22T09:35:09;97235.84;;;26.83
19102;BMP280;9683;49.028;12.064;2023-06-22T09:37:38;97219.81;;;26.73
19102;BMP280;9683;49.028;12.064;2023-06-22T09:40:06;97232.97;;;26.88
19102;BMP280;9683;49.028;12.064;2023-06-22T09:42:36;97221.91;;;26.85
19102;BMP280;9683;49.028;12.064;2023-06-22T09:45:05;97234.50;;;26.98
19102;BMP280;9683;49.028;12.064;2023-06-22T09:47:32;97230.00;;;27.02
19102;BMP280;9683;49.028;12.064;2023-06-22T09:49:58;97229.47;;;27.09
19102;BMP280;9683;49.028;12.064;2023-06-22T09:52:25;97214.34;;;27.11
19102;BMP280;9683;49.028;12.064;2023-06-22T09:54:52;97218.00;;;27.15
19102;BMP280;9683;49.028;12.064;2023-06-22T09:57:18;97209.81;;;27.15
19102;BMP280;9683;49.028;12.064;2023-06-22T09:59:45;97211.28;;;27.13
19102;BMP280;9683;49.028;12.064;2023-06-22T10:02:13;97198.28;;;27.10
19102;BMP280;9683;49.028;12.064;2023-06-22T10:04:40;97226.16;;;27.24
19102;BMP280;9683;49.028;12.064;2023-06-22T10:07:06;97205.00;;;27.12
19102;BMP280;9683;49.028;12.064;2023-06-22T10:09:33;97213.09;;;27.29
19102;BMP280;9683;49.028;12.064;2023-06-22T10:11:59;97213.59;;;27.31
19102;BMP280;9683;49.028;12.064;2023-06-22T10:14:26;97213.72;;;27.35
19102;BMP280;9683;49.028;12.064;2023-06-22T10:16:54;97202.44;;;27.36
19102;BMP280;9683;49.028;12.064;2023-06-22T10:19:22;97205.28;;;27.40
19102;BMP280;9683;49.028;12.064;2023-06-22T10:21:49;97202.25;;;27.42
19102;BMP280;9683;49.028;12.064;2023-06-22T10:24:16;97203.53;;;27.44
19102;BMP280;9683;49.028;12.064;2023-06-22T10:26:42;97199.78;;;27.49
19102;BMP280;9683;49.028;12.064;2023-06-22T10:29:09;97199.16;;;27.52
19102;BMP280;9683;49.028;12.064;2023-06-22T10:31:35;97193.81;;;27.55
19102;BMP280;9683;49.028;12.064;2023-06-22T10:34:02;97192.19;;;27.54
19102;BMP280;9683;49.028;12.064;2023-06-22T10:36:29;97193.13;;;27.58
19102;BMP280;9683;49.028;12.064;2023-06-22T10:38:56;97182.19;;;27.58
19102;BMP280;9683;49.028;12.064;2023-06-22T10:41:24;97182.78;;;27.64
19102;BMP280;9683;49.028;12.064;2023-06-22T10:43:51;97179.03;;;27.68
19102;BMP280;9683;49.028;12.064;2023-06-22T10:46:17;97176.09;;;27.73
19102;BMP280;9683;49.028;12.064;2023-06-22T10:48:44;97179.41;;;27.79
19102;BMP280;9683;49.028;12.064;2023-06-22T10:51:10;97172.13;;;27.83
19102;BMP280;9683;49.028;12.064;2023-06-22T10:53:38;97163.72;;;27.88
19102;BMP280;9683;49.028;12.064;2023-06-22T10:56:05;97165.78;;;27.91
19102;BMP280;9683;49.028;12.064;2023-06-22T10:58:31;97165.34;;;28.01
19102;BMP280;9683;49.028;12.064;2023-06-22T11:00:58;97158.50;;;28.07
19102;BMP280;9683;49.028;12.064;2023-06-22T11:03:25;97152.41;;;28.10
19102;BMP280;9683;49.028;12.064;2023-06-22T11:05:51;97156.50;;;28.16
19102;BMP280;9683;49.028;12.064;2023-06-22T11:08:18;97150.81;;;28.21
19102;BMP280;9683;49.028;12.064;2023-06-22T11:10:46;97148.66;;;28.27
19102;BMP280;9683;49.028;12.064;2023-06-22T11:13:13;97140.09;;;28.29
19102;BMP280;9683;49.028;12.064;2023-06-22T11:15:39;97133.94;;;28.32
19102;BMP280;9683;49.028;12.064;2023-06-22T11:18:06;97125.84;;;28.35
19102;BMP280;9683;49.028;12.064;2023-06-22T11:20:33;97126.97;;;28.46
19102;BMP280;9683;49.028;12.064;2023-06-22T11:23:04;97127.56;;;28.52
19102;BMP280;9683;49.028;12.064;2023-06-22T11:25:30;97125.41;;;28.57
19102;BMP280;9683;49.028;12.064;2023-06-22T11:27:58;97125.97;;;28.63
19102;BMP280;9683;49.028;12.064;2023-06-22T11:30:25;97121.84;;;28.69
19102;BMP280;9683;49.028;12.064;2023-06-22T11:32:52;97122.31;;;28.83
19102;BMP280;9683;49.028;12.064;2023-06-22T11:35:19;97115.56;;;28.93
19102;BMP280;9683;49.028;12.064;2023-06-22T11:37:45;97115.91;;;29.03
19102;BMP280;9683;49.028;12.064;2023-06-22T11:40:12;97104.56;;;29.05
19102;BMP280;9683;49.028;12.064;2023-06-22T11:42:39;97121.56;;;29.23
19102;BMP280;9683;49.028;12.064;2023-06-22T11:45:07;97104.91;;;29.15
19102;BMP280;9683;49.028;12.064;2023-06-22T11:47:34;97116.16;;;29.38
19102;BMP280;9683;49.028;12.064;2023-06-22T11:50:01;97121.50;;;29.47
19102;BMP280;9683;49.028;12.064;2023-06-22T11:52:28;97115.06;;;29.55
19102;BMP280;9683;49.028;12.064;2023-06-22T11:54:54;97094.94;;;29.51
19102;BMP280;9683;49.028;12.064;2023-06-22T11:57:21;97105.28;;;29.70
19102;BMP280;9683;49.028;12.064;2023-06-22T11:59:47;97098.84;;;29.78
19102;BMP280;9683;49.028;12.064;2023-06-22T12:02:15;97101.25;;;29.79
19102;BMP280;9683;49.028;12.064;2023-06-22T12:04:42;97099.00;;;29.85
19102;BMP280;9683;49.028;12.064;2023-06-22T12:07:08;97101.28;;;29.95
19102;BMP280;9683;49.028;12.064;2023-06-22T12:09:35;97104.22;;;30.02
19102;BMP280;9683;49.028;12.064;2023-06-22T12:12:02;97094.09;;;30.06
19102;BMP280;9683;49.028;12.064;2023-06-22T12:14:28;97092.63;;;30.09
19102;BMP280;9683;49.028;12.064;2023-06-22T12:16:55;97099.44;;;30.15
19102;BMP280;9683;49.028;12.064;2023-06-22T12:19:23;97059.91;;;30.03
19102;BMP280;9683;49.028;12.064;2023-06-22T12:21:50;97084.81;;;30.26
19102;BMP280;9683;49.028;12.064;2023-06-22T12:24:16;97074.91;;;30.22
19102;BMP280;9683;49.028;12.064;2023-06-22T12:26:43;97083.06;;;30.34
19102;BMP280;9683;49.028;12.064;2023-06-22T12:29:09;97079.31;;;30.42
19102;BMP280;9683;49.028;12.064;2023-06-22T12:31:36;97077.03;;;30.44
19102;BMP280;9683;49.028;12.064;2023-06-22T12:34:04;97064.88;;;30.45
19102;BMP280;9683;49.028;12.064;2023-06-22T12:36:32;97069.66;;;30.64
19102;BMP280;9683;49.028;12.064;2023-06-22T12:38:58;97069.00;;;30.70
19102;BMP280;9683;49.028;12.064;2023-06-22T12:41:25;97066.69;;;30.72
19102;BMP280;9683;49.028;12.064;2023-06-22T12:43:51;97069.69;;;30.83
19102;BMP280;9683;49.028;12.064;2023-06-22T12:46:18;97070.69;;;30.94
19102;BMP280;9683;49.028;12.064;2023-06-22T12:48:44;97058.63;;;30.99
19102;BMP280;9683;49.028;12.064;2023-06-22T12:51:11;97064.09;;;31.14
19102;BMP280;9683;49.028;12.064;2023-06-22T12:53:39;97055.63;;;31.23
19102;BMP280;9683;49.028;12.064;2023-06-22T12:56:05;97051.06;;;31.30
19102;BMP280;9683;49.028;12.064;2023-06-22T12:58:32;97054.69;;;31.34
19102;BMP280;9683;49.028;12.064;2023-06-22T13:00:58;97056.03;;;31.44
19102;BMP280;9683;49.028;12.064;2023-06-22T13:03:25;97048.28;;;31.50
19102;BMP280;9683;49.028;12.064;2023-06-22T13:05:54;97040.56;;;31.55
19102;BMP280;9683;49.028;12.064;2023-06-22T13:08:21;97047.72;;;31.60
19102;BMP280;9683;49.028;12.064;2023-06-22T13:10:49;97049.06;;;31.69
19102;BMP280;9683;49.028;12.064;2023-06-22T13:13:15;97048.34;;;31.72
19102;BMP280;9683;49.028;12.064;2023-06-22T13:15:42;97035.06;;;31.78
19102;BMP280;9683;49.028;12.064;2023-06-22T13:18:09;97021.72;;;31.80
19102;BMP280;9683;49.028;12.064;2023-06-22T13:20:35;97027.09;;;31.96
19102;BMP280;9683;49.028;12.064;2023-06-22T13:23:02;97038.69;;;32.05
19102;BMP280;9683;49.028;12.064;2023-06-22T13:25:28;97027.44;;;32.13
19102;BMP280;9683;49.028;12.064;2023-06-22T13:27:56;97025.19;;;32.19
19102;BMP280;9683;49.028;12.064;2023-06-22T13:30:23;97030.84;;;32.29
19102;BMP280;9683;49.028;12.064;2023-06-22T13:32:49;96995.31;;;32.24
19102;BMP280;9683;49.028;12.064;2023-06-22T13:35:16;97019.28;;;32.47
19102;BMP280;9683;49.028;12.064;2023-06-22T13:37:42;97014.63;;;32.51
19102;BMP280;9683;49.028;12.064;2023-06-22T13:40:09;96990.84;;;32.43
19102;BMP280;9683;49.028;12.064;2023-06-22T13:42:36;96998.25;;;32.61
19102;BMP280;9683;49.028;12.064;2023-06-22T13:45:05;96967.75;;;32.54
19102;BMP280;9683;49.028;12.064;2023-06-22T13:47:32;96985.88;;;32.78
19102;BMP280;9683;49.028;12.064;2023-06-22T13:49:59;96988.38;;;32.90
19102;BMP280;9683;49.028;12.064;2023-06-22T13:52:26;96973.47;;;32.95
19102;BMP280;9683;49.028;12.064;2023-06-22T13:54:52;97000.03;;;33.06
19102;BMP280;9683;49.028;12.064;2023-06-22T13:57:19;96985.84;;;33.08
19102;BMP280;9683;49.028;12.064;2023-06-22T13:59:45;96996.28;;;33.22
19102;BMP280;9683;49.028;12.064;2023-06-22T14:02:13;97002.34;;;33.34
19102;BMP280;9683;49.028;12.064;2023-06-22T14:04:40;96996.47;;;33.39
19102;BMP280;9683;49.028;12.064;2023-06-22T14:07:06;96992.22;;;33.45
19102;BMP280;9683;49.028;12.064;2023-06-22T14:09:33;96986.72;;;33.49